Time;durP1;ratioP1;P1;durP2;ratioP2;P2;SDS_P1;SDS_P2;PMS_P1;PMS_P2;Temp;Humidity;BMP_temperature;BMP_pressure;BME280_temperature;BME280_humidity;BME280_pressure;Samples;Min_cycle;Max_cycle;Signal;HPM_P1;HPM_P2
2022/10/31 00:02:19;;;;;;;15.93;4.53;;;;;;;10.85;96.85;101221.66;6271188;22;19913;-83
2022/10/31 00:05:23;;;;;;;13.88;4.15;;;;;;;10.78;97.55;101221.97;6271436;22;20023;-82
2022/10/31 00:08:27;;;;;;;16.73;4.10;;;;;;;10.83;97.75;101223.47;6271204;22;20395;-83
2022/10/31 00:11:30;;;;;;;15.13;3.92;;;;;;;10.89;97.13;101223.22;6270494;22;20407;-83
2022/10/31 00:14:33;;;;;;;;;;;;;;;10.85;97.26;101224.28;6270195;22;20023;-83
2022/10/31 00:17:38;;;;;;;19.00;4.18;;;;;;;10.81;97.02;101225.31;6270194;22;19918;-83
2022/10/31 00:20:41;;;;;;;17.15;3.85;;;;;;;10.83;96.60;101222.63;6270897;22;20046;-83
2022/10/31 00:23:45;;;;;;;11.10;4.10;;;;;;;10.75;96.47;101220.31;6271156;22;20149;-83
2022/10/31 00:26:48;;;;;;;22.48;5.05;;;;;;;10.87;95.91;101219.81;6271227;22;20106;-83
2022/10/31 00:29:51;;;;;;;;;;;;;;;10.83;96.11;101207.78;6249390;22;20198;-83
2022/10/31 00:32:56;;;;;;;17.23;3.67;;;;;;;10.69;95.58;101220.59;6249357;22;19967;-83
2022/10/31 00:36:00;;;;;;;12.68;4.57;;;;;;;10.68;94.94;101218.88;6269199;22;20022;-83
2022/10/31 00:39:04;;;;;;;9.68;3.88;;;;;;;10.71;95.29;101216.16;6268516;22;20355;-83
2022/10/31 00:42:09;;;;;;;25.58;4.32;;;;;;;10.54;96.91;101221.22;6249896;22;20023;-83
2022/10/31 00:45:13;;;;;;;37.13;4.13;;;;;;;10.31;97.56;101217.78;6269204;22;20432;-83
2022/10/31 00:48:17;;;;;;;17.95;3.70;;;;;;;10.42;96.53;101209.50;6269033;22;20568;-83
2022/10/31 00:51:20;;;;;;;13.88;3.70;;;;;;;10.52;95.49;101215.22;6268251;22;20050;-83
2022/10/31 00:54:24;;;;;;;12.55;3.08;;;;;;;10.53;94.14;101216.91;6269610;22;20077;-83
2022/10/31 00:57:27;;;;;;;7.47;3.55;;;;;;;10.62;93.60;101213.91;6250617;22;20028;-83
2022/10/31 01:00:31;;;;;;;20.73;4.18;;;;;;;10.54;93.15;101210.78;6251845;22;20030;-83
2022/10/31 01:03:35;;;;;;;12.50;4.30;;;;;;;10.50;94.58;101214.41;6252222;22;20029;-83
2022/10/31 01:06:40;;;;;;;20.08;3.50;;;;;;;10.43;95.27;101217.31;6252675;22;20073;-83
2022/10/31 01:09:44;;;;;;;13.77;3.35;;;;;;;10.38;96.01;101211.41;6270638;22;20034;-83
2022/10/31 01:12:49;;;;;;;8.38;3.03;;;;;;;10.47;95.38;101216.25;6267240;22;20041;-83
2022/10/31 01:15:58;;;;;;;9.40;3.60;;;;;;;10.58;95.07;101214.97;6268912;22;20019;-83
2022/10/31 01:19:02;;;;;;;12.60;3.60;;;;;;;10.58;94.79;101218.41;6251392;22;20031;-83
2022/10/31 01:22:06;;;;;;;7.85;3.40;;;;;;;10.49;95.24;101216.19;6251270;22;20027;-83
2022/10/31 01:25:11;;;;;;;12.85;2.95;;;;;;;10.43;95.43;101219.91;6269698;22;20122;-83
2022/10/31 01:28:15;;;;;;;13.93;3.78;;;;;;;10.37;95.85;101220.16;6252426;22;20351;-83
2022/10/31 01:31:19;;;;;;;;;;;;;;;10.50;95.15;101217.91;6271122;22;20070;-83
2022/10/31 01:34:23;;;;;;;8.35;3.00;;;;;;;10.53;94.53;101219.50;6249821;22;19933;-83
2022/10/31 01:37:31;;;;;;;31.98;4.40;;;;;;;10.23;94.71;101222.44;6271081;22;20343;-83
2022/10/31 01:40:34;;;;;;;25.40;3.67;;;;;;;10.20;94.49;101217.31;6251524;22;20109;-83
2022/10/31 01:44:02;;;;;;;9.60;3.42;;;;;;;10.20;94.76;101212.09;6271053;22;20351;-83
2022/10/31 01:47:14;;;;;;;11.98;3.22;;;;;;;10.27;93.42;101220.56;6271646;22;20026;-83
2022/10/31 01:50:32;;;;;;;13.33;3.13;;;;;;;10.22;93.67;101216.34;6253052;22;20026;-82
2022/10/31 01:53:36;;;;;;;7.05;3.22;;;;;;;10.29;93.64;101211.75;6251786;22;20347;-83
2022/10/31 01:56:45;;;;;;;6.82;3.15;;;;;;;10.29;93.72;101213.53;6271190;22;20117;-83
2022/10/31 01:59:54;;;;;;;10.13;3.80;;;;;;;10.27;93.34;101218.81;6252046;22;20076;-83
2022/10/31 02:02:59;;;;;;;5.95;3.22;;;;;;;10.29;93.17;101217.00;6274068;22;20027;-83
2022/10/31 02:06:14;;;;;;;13.95;3.42;;;;;;;10.36;93.44;101214.97;6289728;22;20394;-83
2022/10/31 02:09:34;;;;;;;9.35;3.28;;;;;;;10.27;94.69;101213.56;6269715;22;20482;-83
2022/10/31 02:12:41;;;;;;;17.20;3.47;;;;;;;10.22;95.21;101212.91;6269935;22;20027;-83
2022/10/31 02:15:50;;;;;;;7.53;2.83;;;;;;;10.14;95.27;101207.09;6251025;22;20080;-83
2022/10/31 02:18:55;;;;;;;9.85;3.22;;;;;;;10.32;95.68;101201.19;6252049;22;20085;-83
2022/10/31 02:22:16;;;;;;;15.00;3.60;;;;;;;10.28;95.05;101204.84;6253320;22;20325;-83
2022/10/31 02:25:38;;;;;;;9.00;2.92;;;;;;;10.30;94.99;101203.00;6257133;22;20170;-83
2022/10/31 02:28:51;;;;;;;21.02;3.70;;;;;;;10.20;95.33;101206.88;6251784;22;20073;-83
2022/10/31 02:32:01;;;;;;;5.87;3.47;;;;;;;10.33;94.94;101210.72;6254017;22;20068;-83
2022/10/31 02:35:23;;;;;;;13.90;3.80;;;;;;;10.43;92.77;101209.47;6254288;22;20026;-83
2022/10/31 02:38:27;;;;;;;21.02;4.10;;;;;;;10.11;94.45;101199.38;6254301;22;20049;-83
2022/10/31 02:42:03;;;;;;;18.42;3.47;;;;;;;10.16;95.04;101189.63;6255015;22;20050;-82
2022/10/31 02:45:13;;;;;;;16.65;4.18;;;;;;;10.29;94.46;101200.47;6253963;22;20027;-83
2022/10/31 02:48:26;;;;;;;9.13;3.97;;;;;;;10.29;94.60;101195.22;6254397;22;20022;-83
2022/10/31 02:51:30;;;;;;;7.50;3.60;;;;;;;10.10;95.66;101195.09;6273086;22;20517;-83
2022/10/31 02:54:34;;;;;;;19.00;3.53;;;;;;;9.85;96.48;101192.56;6254144;22;20018;-83
2022/10/31 02:57:40;;;;;;;15.68;3.65;;;;;;;9.96;95.62;101191.25;6254468;22;20286;-83
2022/10/31 03:01:03;;;;;;;9.95;3.70;;;;;;;10.16;94.83;101189.63;6253896;22;20027;-83
2022/10/31 03:04:15;;;;;;;10.52;3.33;;;;;;;10.26;94.20;101196.19;6254831;22;20104;-83
2022/10/31 03:07:35;;;;;;;10.43;3.15;;;;;;;10.19;93.90;101199.94;6253926;22;20054;-83
2022/10/31 03:10:51;;;;;;;12.35;2.92;;;;;;;10.14;93.92;101196.66;6253720;22;20367;-83
2022/10/31 03:14:06;;;;;;;7.10;2.72;;;;;;;10.03;93.90;101199.69;6253509;22;20027;-83
2022/10/31 03:17:31;;;;;;;7.05;3.15;;;;;;;9.98;93.96;101193.78;6254467;22;20370;-83
2022/10/31 03:21:12;;;;;;;12.25;2.45;;;;;;;9.90;94.35;101193.25;6271157;22;20351;-83
2022/10/31 03:24:16;;;;;;;10.85;2.83;;;;;;;10.05;93.66;101190.06;6218524;22;20446;-83
2022/10/31 03:27:26;;;;;;;7.90;2.75;;;;;;;10.08;92.95;101196.91;6253219;22;20351;-83
2022/10/31 03:30:35;;;;;;;16.23;3.03;;;;;;;10.02;93.42;101193.63;6253653;22;20026;-83
2022/10/31 03:33:42;;;;;;;7.05;2.97;;;;;;;9.97;93.61;101195.56;6253286;22;20390;-83
2022/10/31 03:36:51;;;;;;;7.47;3.38;;;;;;;10.05;92.65;101197.00;6253502;22;20093;-83
2022/10/31 03:39:58;;;;;;;9.48;2.80;;;;;;;10.00;92.87;101195.44;6253731;22;20026;-83
2022/10/31 03:43:09;;;;;;;9.65;2.80;;;;;;;9.98;93.28;101196.41;6253877;22;20394;-83
2022/10/31 03:46:13;;;;;;;7.88;2.50;;;;;;;10.06;92.71;101194.34;6272523;22;20088;-83
2022/10/31 03:49:17;;;;;;;6.85;2.42;;;;;;;10.07;92.27;101193.44;6253470;22;20523;-83
2022/10/31 03:52:36;;;;;;;5.30;2.55;;;;;;;9.78;93.54;101198.03;6254601;22;20022;-83
2022/10/31 03:55:59;;;;;;;5.20;2.63;;;;;;;9.70;93.78;101191.38;6235636;22;20394;-83
2022/10/31 03:59:12;;;;;;;7.25;2.53;;;;;;;9.85;93.77;101184.75;6253235;22;20466;-83
2022/10/31 04:02:21;;;;;;;7.00;2.45;;;;;;;9.89;93.32;101179.34;6254197;22;20029;-83
2022/10/31 04:05:26;;;;;;;5.47;2.75;;;;;;;10.01;92.19;101185.84;6272635;22;20315;-83
2022/10/31 04:08:41;;;;;;;6.30;3.40;;;;;;;9.99;92.53;101185.06;6255825;22;20447;-83
2022/10/31 04:11:50;;;;;;;7.10;3.05;;;;;;;9.95;92.05;101186.91;6254164;22;20073;-83
2022/10/31 04:15:12;;;;;;;11.10;3.05;;;;;;;9.98;91.86;101181.56;6252140;22;20019;-83
2022/10/31 04:18:17;;;;;;;10.40;2.90;;;;;;;9.69;92.61;101180.09;6252234;22;20085;-83
2022/10/31 04:21:30;;;;;;;7.35;2.45;;;;;;;9.71;92.93;101177.44;6252999;22;20071;-83
2022/10/31 04:24:38;;;;;;;10.13;2.08;;;;;;;9.67;93.03;101187.16;6252850;22;20031;-83
2022/10/31 04:27:41;;;;;;;8.40;2.78;;;;;;;9.80;92.44;101181.47;6253063;22;20347;-83
2022/10/31 04:30:49;;;;;;;12.38;2.97;;;;;;;9.76;92.67;101191.16;6253368;22;20065;-83
2022/10/31 04:33:53;;;;;;;8.88;2.90;;;;;;;9.59;93.94;101188.34;6253310;22;20030;-83
2022/10/31 04:36:58;;;;;;;13.93;2.60;;;;;;;9.61;93.91;101183.94;6253849;22;20030;-83
2022/10/31 04:40:03;;;;;;;9.15;2.60;;;;;;;9.63;93.43;101190.78;6272418;22;20501;-83
2022/10/31 04:43:22;;;;;;;5.25;2.30;;;;;;;9.64;93.00;101181.19;6253081;22;20082;-83
2022/10/31 04:46:31;;;;;;;13.85;2.72;;;;;;;9.61;92.36;101187.38;6271533;22;20022;-83
2022/10/31 04:49:36;;;;;;;8.13;2.40;;;;;;;9.52;92.75;101183.34;6255740;22;20023;-82
2022/10/31 04:52:42;;;;;;;7.55;2.92;;;;;;;9.64;92.20;101191.66;6255317;22;20366;-83
2022/10/31 04:55:47;;;;;;;4.78;2.25;;;;;;;9.72;91.73;101190.44;6252305;22;20022;-83
2022/10/31 04:58:58;;;;;;;8.07;2.15;;;;;;;9.60;91.71;101196.09;6252554;22;20084;-83
2022/10/31 05:02:04;;;;;;;9.38;3.15;;;;;;;9.57;91.53;101195.38;6252826;22;20073;-83
2022/10/31 05:05:24;;;;;;;9.40;4.13;;;;;;;9.48;92.47;101197.44;6252148;22;20046;-83
2022/10/31 05:08:31;;;;;;;14.80;3.50;;;;;;;9.47;92.48;101193.09;6268377;22;20050;-83
2022/10/31 05:11:41;;;;;;;4.95;2.67;;;;;;;9.40;92.98;101202.06;6251297;22;20285;-83
2022/10/31 05:15:22;;;;;;;9.98;3.42;;;;;;;9.69;91.29;101194.91;6269899;22;20106;-83
2022/10/31 05:18:46;;;;;;;12.60;2.95;;;;;;;9.59;91.49;101198.78;6250223;22;20034;-83
2022/10/31 05:22:15;;;;;;;9.00;2.70;;;;;;;9.52;91.87;101188.56;6268448;22;20027;-83
2022/10/31 05:25:22;;;;;;;7.43;2.95;;;;;;;9.51;91.74;101191.25;6250439;22;20081;-83
2022/10/31 05:28:27;;;;;;;9.20;3.65;;;;;;;9.50;92.07;101185.16;6250334;22;20027;-83
2022/10/31 05:31:33;;;;;;;9.32;2.40;;;;;;;9.53;92.25;101178.97;6234099;22;20467;-83
2022/10/31 05:34:38;;;;;;;4.78;2.10;;;;;;;9.60;91.98;101175.22;6252571;22;20070;-83
2022/10/31 05:38:01;;;;;;;9.73;2.78;;;;;;;9.50;93.10;101166.88;6270110;22;20084;-83
2022/10/31 05:41:04;;;;;;;9.60;2.55;;;;;;;9.70;91.89;101168.75;6251261;22;20091;-83
2022/10/31 05:44:09;;;;;;;8.45;2.50;;;;;;;9.57;92.53;101169.25;6251251;22;20439;-83
2022/10/31 05:47:27;;;;;;;8.80;2.65;;;;;;;9.67;92.25;101165.41;6250756;22;20077;-83
2022/10/31 05:50:33;;;;;;;8.63;2.60;;;;;;;9.66;92.30;101163.69;6251069;22;20025;-83
2022/10/31 05:53:47;;;;;;;10.20;2.65;;;;;;;9.77;91.66;101156.31;6251133;22;20038;-83
2022/10/31 05:56:51;;;;;;;9.68;2.90;;;;;;;9.52;93.40;101159.00;6250718;22;20076;-83
2022/10/31 05:59:55;;;;;;;12.27;4.03;;;;;;;9.62;93.25;101155.13;6249735;22;20029;-83
2022/10/31 06:03:01;;;;;;;11.25;3.03;;;;;;;9.56;93.66;101157.97;6253236;22;20459;-83
2022/10/31 06:06:25;;;;;;;13.02;3.75;;;;;;;9.53;93.56;101153.72;6273692;22;20347;-82
2022/10/31 06:09:30;;;;;;;9.10;3.72;;;;;;;9.70;92.54;101160.94;6284745;22;20031;-83
2022/10/31 06:12:40;;;;;;;9.23;3.90;;;;;;;9.82;91.85;101159.59;6297498;22;20038;-83
2022/10/31 06:16:08;;;;;;;16.77;4.32;;;;;;;9.82;92.19;101162.19;6269179;22;20847;-83
2022/10/31 06:19:14;;;;;;;19.33;5.13;;;;;;;9.73;93.25;101154.72;6252979;22;20030;-82
2022/10/31 06:22:18;;;;;;;27.13;3.85;;;;;;;9.75;93.19;101158.13;6251172;22;20112;-83
2022/10/31 06:25:23;;;;;;;30.48;3.92;;;;;;;9.57;94.16;101156.22;6274674;22;20023;-83
2022/10/31 06:28:26;;;;;;;15.57;3.90;;;;;;;9.63;94.32;101163.81;6253877;22;20470;-83
2022/10/31 06:31:40;;;;;;;21.52;4.40;;;;;;;9.77;94.24;101158.94;6257034;22;20461;-83
2022/10/31 06:34:58;;;;;;;11.38;3.58;;;;;;;9.79;94.08;101162.31;6248488;22;20110;-83
2022/10/31 06:38:02;;;;;;;51.40;5.15;;;;;;;9.80;94.69;101158.81;6271053;22;20066;-83
2022/10/31 06:41:26;;;;;;;68.15;4.95;;;;;;;9.77;95.23;101156.31;6270952;22;20030;-83
2022/10/31 06:44:31;;;;;;;32.08;4.15;;;;;;;9.66;95.41;101159.31;6253280;22;20350;-83
2022/10/31 06:48:04;;;;;;;;;;;;;;;9.63;96.92;101163.81;6270038;22;20095;-83
2022/10/31 06:51:17;;;;;;;14.18;3.90;;;;;;;9.68;96.38;101157.50;6251560;22;19914;-83
2022/10/31 06:54:21;;;;;;;42.63;4.88;;;;;;;9.63;96.86;101158.59;6250729;22;20031;-83
2022/10/31 06:57:24;;;;;;;13.48;4.20;;;;;;;9.71;96.67;101161.78;6252716;22;20085;-83
2022/10/31 07:00:29;;;;;;;;;;;;;;;9.62;97.23;101164.72;6251682;22;20682;-83
2022/10/31 07:03:40;;;;;;;19.75;4.88;;;;;;;9.58;97.79;101169.22;6252553;22;19953;-83
2022/10/31 07:06:45;;;;;;;18.58;4.20;;;;;;;9.65;97.45;101170.69;6252253;22;20355;-83
2022/10/31 07:09:48;;;;;;;17.52;4.15;;;;;;;9.70;96.17;101170.50;6251270;22;20438;-83
2022/10/31 07:13:00;;;;;;;19.27;5.38;;;;;;;9.81;94.99;101173.56;6235755;22;20469;-83
2022/10/31 07:16:12;;;;;;;13.65;3.80;;;;;;;9.83;94.84;101169.13;6252830;22;20027;-83
2022/10/31 07:19:17;;;;;;;24.20;4.70;;;;;;;9.85;95.01;101174.28;6271352;22;20027;-83
2022/10/31 07:22:22;;;;;;;14.73;4.43;;;;;;;9.81;94.55;101173.56;6252885;22;20080;-83
2022/10/31 07:25:26;;;;;;;7.25;3.55;;;;;;;10.06;93.61;101188.28;6253290;22;20077;-83
2022/10/31 07:28:39;;;;;;;9.52;4.03;;;;;;;10.02;94.41;101183.19;6271848;22;20520;-83
2022/10/31 07:31:46;;;;;;;8.95;3.95;;;;;;;10.09;92.97;101185.56;6252957;22;20030;-83
2022/10/31 07:34:57;;;;;;;14.13;6.30;;;;;;;9.96;93.83;101183.41;6252745;22;20156;-83
2022/10/31 07:38:11;;;;;;;13.95;7.53;;;;;;;9.98;93.65;101185.97;6270955;22;20022;-84
2022/10/31 07:41:15;;;;;;;17.80;11.70;;;;;;;9.96;93.83;101182.56;6271633;22;20069;-84
2022/10/31 07:44:21;;;;;;;16.27;8.85;;;;;;;10.00;94.62;101189.38;6253261;22;20022;-84
2022/10/31 07:47:52;;;;;;;10.15;4.68;;;;;;;10.11;94.18;101188.94;6236541;22;20026;-84
2022/10/31 07:51:15;;;;;;;7.05;4.32;;;;;;;10.11;94.09;101195.00;6271030;22;20480;-84
2022/10/31 07:54:54;;;;;;;5.72;5.07;;;;;;;10.05;94.55;101194.41;6238421;22;20082;-84
2022/10/31 07:58:02;;;;;;;7.70;3.80;;;;;;;10.17;94.74;101188.69;6251134;22;20070;-84
2022/10/31 08:01:06;;;;;;;4.30;3.25;;;;;;;10.18;94.47;101193.03;6251165;22;20026;-84
2022/10/31 08:04:17;;;;;;;6.00;4.38;;;;;;;10.30;93.23;101189.09;6234016;22;20023;-84
2022/10/31 08:07:40;;;;;;;7.72;3.72;;;;;;;10.31;92.21;101194.25;6268581;22;20053;-84
2022/10/31 08:11:14;;;;;;;7.90;4.78;;;;;;;10.30;92.72;101203.00;6269493;22;20031;-84
2022/10/31 08:14:22;;;;;;;7.85;5.78;;;;;;;10.26;93.51;101198.81;6250967;22;20096;-84
2022/10/31 08:17:29;;;;;;;7.57;5.60;;;;;;;10.24;93.67;101187.53;6251077;22;20058;-84
2022/10/31 08:20:34;;;;;;;18.77;4.63;;;;;;;10.23;93.85;101193.69;6250646;22;20026;-84
2022/10/31 08:23:39;;;;;;;5.22;3.47;;;;;;;10.14;94.84;101196.66;6251189;22;20127;-84
2022/10/31 08:26:42;;;;;;;;;;;;;;;10.21;93.86;101187.66;6251968;22;20548;-84
2022/10/31 08:29:48;;;;;;;6.13;4.68;;;;;;;10.29;94.20;101192.63;6251266;22;19913;-84
2022/10/31 08:33:03;;;;;;;6.55;3.92;;;;;;;10.51;94.05;101189.97;6269657;22;20078;-84
2022/10/31 08:36:32;;;;;;;8.80;3.33;;;;;;;10.42;93.42;101186.81;6271959;22;20026;-84
2022/10/31 08:40:02;;;;;;;4.78;3.42;;;;;;;10.58;92.83;101181.81;6270567;22;20023;-84
2022/10/31 08:43:13;;;;;;;10.35;7.20;;;;;;;10.64;92.58;101171.09;6252836;22;20026;-84
2022/10/31 08:46:21;;;;;;;7.75;3.55;;;;;;;10.59;92.58;101166.97;6253574;22;20081;-84
2022/10/31 08:49:25;;;;;;;8.20;3.65;;;;;;;10.57;92.53;101174.03;6272143;22;20022;-84
2022/10/31 08:52:32;;;;;;;5.68;3.45;;;;;;;10.65;93.12;101167.56;6254560;22;20077;-84
2022/10/31 08:55:41;;;;;;;7.80;3.78;;;;;;;10.79;92.64;101161.75;6252354;22;20023;-84
2022/10/31 08:58:59;;;;;;;6.13;3.08;;;;;;;10.89;92.09;101160.44;6251450;22;20099;-84
2022/10/31 09:02:41;;;;;;;5.82;3.25;;;;;;;10.87;92.19;101151.78;6270572;22;20027;-84
2022/10/31 09:05:46;;;;;;;5.57;3.65;;;;;;;10.79;93.11;101153.91;6234593;22;20504;-84
2022/10/31 09:08:49;;;;;;;4.80;3.30;;;;;;;10.81;93.78;101152.06;6253471;22;20493;-84
2022/10/31 09:11:53;;;;;;;5.32;3.65;;;;;;;10.96;93.21;101150.53;6279839;22;20021;-84
2022/10/31 09:15:42;;;;;;;;;;;;;;;10.87;94.78;101149.19;6301125;22;20014;-86
2022/10/31 09:19:03;;;;;;;5.78;3.13;;;;;;;10.86;95.98;101150.09;6268655;22;20011;-86
2022/10/31 09:22:20;;;;;;;5.32;2.95;;;;;;;10.86;95.29;101139.63;6270867;22;20023;-86
2022/10/31 09:25:32;;;;;;;10.50;8.30;;;;;;;11.11;95.45;101143.78;6268319;22;20023;-84
2022/10/31 09:29:04;;;;;;;5.90;4.28;;;;;;;11.37;94.43;101134.75;6271375;22;20516;-84
2022/10/31 09:32:09;;;;;;;7.15;4.50;;;;;;;11.53;93.16;101124.44;6216830;22;20098;-85
2022/10/31 09:35:42;;;;;;;13.25;9.75;;;;;;;11.74;92.62;101123.44;6257430;22;20069;-85
2022/10/31 09:38:46;;;;;;;6.72;4.30;;;;;;;11.75;93.28;101127.75;6233701;22;20022;-84
2022/10/31 09:42:16;;;;;;;6.05;4.63;;;;;;;11.75;93.77;101114.63;6251783;22;20284;-84
2022/10/31 09:45:24;;;;;;;6.15;4.32;;;;;;;11.74;94.22;101107.72;6251029;22;20022;-84
2022/10/31 09:48:45;;;;;;;8.80;3.70;;;;;;;11.79;94.38;101103.06;6234211;22;20038;-84
2022/10/31 09:52:20;;;;;;;10.70;4.18;;;;;;;11.75;94.23;101113.78;6251745;22;20026;-84
2022/10/31 09:55:35;;;;;;;4.80;3.58;;;;;;;11.69;95.37;101114.94;6239091;22;20347;-84
2022/10/31 09:58:43;;;;;;;4.03;3.10;;;;;;;11.75;96.50;101104.16;6232821;22;20026;-83
2022/10/31 10:01:54;;;;;;;7.20;3.58;;;;;;;11.75;95.93;101098.06;6267759;22;20073;-84
2022/10/31 10:05:03;;;;;;;5.57;3.38;;;;;;;11.85;96.26;101102.81;6269293;22;20465;-84
2022/10/31 10:08:20;;;;;;;4.63;3.90;;;;;;;12.07;95.82;101101.78;6233440;22;20026;-84
2022/10/31 10:12:09;;;;;;;6.80;3.80;;;;;;;12.16;95.02;101098.72;6270029;22;20359;-84
2022/10/31 10:15:28;;;;;;;8.38;3.53;;;;;;;12.24;94.42;101093.91;6270299;22;20482;-84
2022/10/31 10:19:09;;;;;;;9.50;3.90;;;;;;;12.22;94.77;101093.16;6270133;22;20469;-84
2022/10/31 10:22:27;;;;;;;6.57;3.80;;;;;;;12.19;95.49;101093.31;6270074;22;20072;-84
2022/10/31 10:25:40;;;;;;;6.35;4.22;;;;;;;12.38;94.70;101087.13;6270607;22;20022;-84
2022/10/31 10:29:02;;;;;;;7.32;4.80;;;;;;;12.49;94.73;101079.56;6269606;22;20398;-84
2022/10/31 10:32:13;;;;;;;8.20;4.70;;;;;;;12.60;95.02;101082.47;6268760;22;20022;-84
2022/10/31 10:35:44;;;;;;;7.55;4.32;;;;;;;12.65;95.26;101079.63;6250438;22;20022;-84
2022/10/31 10:38:58;;;;;;;11.25;5.70;;;;;;;12.80;94.67;101070.94;6268767;22;20406;-84
2022/10/31 10:49:19;;;;;;;8.93;5.30;;;;;;;12.93;97.20;101063.28;6270747;22;20022;-86
2022/10/31 10:52:50;;;;;;;10.25;4.47;;;;;;;12.83;98.20;101052.41;6272260;22;20027;-86
2022/10/31 10:56:13;;;;;;;8.43;4.45;;;;;;;12.96;99.18;101042.13;6271303;22;20050;-86
2022/10/31 10:59:21;;;;;;;9.52;4.85;;;;;;;12.96;98.66;101042.13;6252693;22;20054;-86
2022/10/31 11:02:27;;;;;;;14.85;6.13;;;;;;;13.02;97.80;101041.78;6272362;22;20026;-85
2022/10/31 11:05:37;;;;;;;18.85;9.68;;;;;;;13.16;97.19;101039.25;6272205;22;20348;-85
2022/10/31 11:08:42;;;;;;;15.32;6.03;;;;;;;13.23;96.42;101029.25;6271660;22;20026;-85
2022/10/31 11:11:53;;;;;;;7.88;6.18;;;;;;;13.44;94.75;101032.50;6271465;22;20026;-85
2022/10/31 11:15:21;;;;;;;11.23;6.43;;;;;;;13.55;97.94;101031.88;6270404;22;20473;-85
2022/10/31 11:18:29;;;;;;;14.30;6.47;;;;;;;13.56;95.83;101021.31;6301891;22;20030;-85
2022/10/31 11:21:36;;;;;;;11.35;6.03;;;;;;;13.81;94.42;101001.47;6252326;22;20100;-84
2022/10/31 11:24:42;;;;;;;13.68;6.28;;;;;;;13.90;93.54;100999.16;6270796;22;20019;-84
2022/10/31 11:27:58;;;;;;;13.38;6.28;;;;;;;13.99;93.56;100996.94;6285590;22;20042;-84
2022/10/31 11:31:16;;;;;;;11.63;6.32;;;;;;;14.09;92.43;100998.06;6272443;22;20054;-84
2022/10/31 11:34:45;;;;;;;15.98;6.60;;;;;;;14.15;91.87;100989.81;6273590;22;20054;-84
2022/10/31 11:38:06;;;;;;;13.85;7.03;;;;;;;14.20;91.49;100990.41;6281678;22;20046;-85
2022/10/31 11:42:02;;;;;;;13.90;6.18;;;;;;;14.15;91.00;100998.56;6269648;22;20022;-84
2022/10/31 11:45:13;;;;;;;13.95;6.47;;;;;;;14.22;90.46;100987.66;6272966;22;20022;-84
2022/10/31 11:48:22;;;;;;;11.35;6.70;;;;;;;14.26;90.42;100990.00;6254689;22;20612;-84
2022/10/31 11:51:31;;;;;;;11.43;7.13;;;;;;;14.33;90.24;100987.88;6274861;22;20112;-84
2022/10/31 11:54:52;;;;;;;16.50;6.82;;;;;;;14.19;92.18;100986.91;6273516;22;20078;-84
2022/10/31 11:58:17;;;;;;;11.18;6.70;;;;;;;14.40;91.38;100976.88;6276106;22;20026;-84
2022/10/31 12:01:26;;;;;;;14.45;5.88;;;;;;;14.44;90.69;100948.59;6279156;22;20027;-84
2022/10/31 12:04:58;;;;;;;14.18;6.53;;;;;;;14.43;91.58;100944.28;6253800;22;20026;-85
2022/10/31 12:08:31;;;;;;;16.52;6.97;;;;;;;14.48;91.60;100947.47;6272531;22;20027;-84
2022/10/31 12:11:56;;;;;;;9.85;6.25;;;;;;;14.52;91.03;100938.50;6273259;22;20025;-84
2022/10/31 12:15:18;;;;;;;15.15;6.43;;;;;;;14.52;91.68;100930.59;6272212;22;20049;-85
2022/10/31 12:18:59;;;;;;;12.75;6.72;;;;;;;14.60;90.77;100924.84;6272837;22;20474;-85
2022/10/31 12:22:26;;;;;;;13.63;6.82;;;;;;;14.64;90.67;100927.19;6268936;22;20517;-84
2022/10/31 12:29:24;;;;;;;10.23;6.40;;;;;;;14.83;90.36;100918.13;6269851;22;20022;-84
2022/10/31 12:32:34;;;;;;;;;;;;;;;14.91;89.22;100915.84;6269759;22;20140;-85
2022/10/31 12:36:32;;;;;;;14.25;6.78;;;;;;;14.90;89.79;100906.28;6269527;22;20388;-85
2022/10/31 12:39:38;;;;;;;12.10;6.13;;;;;;;14.89;89.06;100892.22;6179205;22;20091;-85
2022/10/31 12:43:00;;;;;;;14.82;6.90;;;;;;;14.91;88.99;100886.88;6270475;22;20022;-84
2022/10/31 12:46:15;;;;;;;14.40;7.15;;;;;;;14.96;89.47;100884.78;6269993;22;20025;-84
2022/10/31 12:49:44;;;;;;;11.32;6.60;;;;;;;15.08;88.59;100883.16;6250190;22;20030;-84
2022/10/31 12:53:00;;;;;;;15.38;7.38;;;;;;;15.18;87.89;100872.84;6268832;22;20026;-84
2022/10/31 12:56:14;;;;;;;16.10;6.68;;;;;;;15.25;87.56;100864.47;6272255;22;20027;-83
2022/10/31 12:59:35;;;;;;;10.15;5.88;;;;;;;15.32;87.46;100857.00;6271708;22;20033;-83
2022/10/31 13:03:43;;;;;;;22.38;6.85;;;;;;;15.34;87.57;100847.19;6259736;22;20101;-83
2022/10/31 13:06:56;;;;;;;17.13;6.80;;;;;;;15.34;87.60;100837.47;6180639;23;20119;-83
2022/10/31 13:10:16;;;;;;;16.20;6.70;;;;;;;15.29;88.13;100828.22;6246170;22;20031;-84
2022/10/31 13:13:38;;;;;;;12.35;6.10;;;;;;;15.37;88.70;100828.53;6269645;22;20026;-84
2022/10/31 13:16:47;;;;;;;13.32;6.22;;;;;;;15.21;89.51;100831.34;6270903;22;20354;-84
2022/10/31 13:19:55;;;;;;;12.32;7.25;;;;;;;15.22;89.65;100813.75;6271438;22;20080;-83
2022/10/31 13:23:23;;;;;;;15.85;6.43;;;;;;;15.30;88.32;100808.81;6270791;22;20422;-83
2022/10/31 13:26:38;;;;;;;14.65;6.35;;;;;;;15.28;88.90;100808.06;6270112;22;20022;-83
2022/10/31 13:30:11;;;;;;;12.88;6.55;;;;;;;15.32;88.58;100804.31;6269919;22;20026;-83
2022/10/31 13:33:28;;;;;;;9.65;5.72;;;;;;;15.35;88.69;100790.91;6270372;22;20023;-84
2022/10/31 13:36:55;;;;;;;15.38;7.15;;;;;;;15.35;88.52;100801.47;6268121;22;20110;-83
2022/10/31 13:40:30;;;;;;;16.52;6.30;;;;;;;15.38;89.74;100817.06;6251192;22;20027;-84
2022/10/31 13:44:16;;;;;;;13.38;6.43;;;;;;;15.36;88.78;100805.78;6270305;22;20350;-83
2022/10/31 13:47:29;;;;;;;15.73;6.38;;;;;;;15.35;88.49;100797.03;6270914;22;20026;-83
2022/10/31 13:50:35;;;;;;;14.60;6.72;;;;;;;15.35;88.21;100788.28;6267729;22;20077;-83
2022/10/31 13:53:58;;;;;;;10.80;5.90;;;;;;;15.29;89.13;100780.78;6268649;22;20396;-83
2022/10/31 13:57:01;;;;;;;25.50;7.72;;;;;;;15.28;89.78;100781.72;6269950;22;20066;-84
2022/10/31 14:00:20;;;;;;;16.45;6.70;;;;;;;15.30;89.05;100791.22;6248523;22;20370;-84
2022/10/31 14:03:25;;;;;;;11.93;6.80;;;;;;;15.29;88.66;100800.06;6270062;22;20026;-83
2022/10/31 14:07:09;;;;;;;15.60;6.60;;;;;;;15.22;89.42;100775.09;6270956;22;20027;-84
2022/10/31 14:10:52;;;;;;;14.40;6.88;;;;;;;15.23;89.25;100786.47;6268378;22;20042;-84
2022/10/31 14:13:58;;;;;;;15.40;6.40;;;;;;;15.24;89.26;100786.34;6154030;22;20032;-83
2022/10/31 14:17:02;;;;;;;15.05;6.20;;;;;;;15.22;89.66;100787.41;6270413;22;20403;-84
2022/10/31 14:20:14;;;;;;;18.75;7.35;;;;;;;15.22;89.96;100784.75;6271048;22;20108;-83
2022/10/31 14:23:33;;;;;;;13.45;6.72;;;;;;;15.17;89.88;100771.09;6272434;22;20026;-83
2022/10/31 14:26:54;;;;;;;17.25;6.47;;;;;;;15.19;90.46;100758.63;6253112;22;20091;-84
2022/10/31 14:30:22;;;;;;;14.77;5.97;;;;;;;15.26;90.73;100765.19;6271705;22;20023;-83
2022/10/31 14:33:29;;;;;;;11.07;5.80;;;;;;;15.25;91.67;100752.94;6270805;22;20027;-84
2022/10/31 14:36:43;;;;;;;13.15;6.18;;;;;;;15.11;91.45;100746.84;6272395;22;20023;-84
2022/10/31 14:40:20;;;;;;;15.63;6.82;;;;;;;14.96;92.24;100747.88;6271522;22;20398;-84
2022/10/31 14:43:34;;;;;;;12.90;6.07;;;;;;;14.99;92.45;100747.66;6261809;22;20026;-84
2022/10/31 14:46:50;;;;;;;17.05;6.45;;;;;;;15.02;92.64;100752.72;6270660;22;20068;-84
2022/10/31 14:50:12;;;;;;;16.83;5.67;;;;;;;15.08;95.20;100733.03;6271466;22;20054;-84
2022/10/31 14:53:25;;;;;;;9.87;5.73;;;;;;;15.05;94.15;100727.97;6272321;22;20077;-84
2022/10/31 14:56:35;;;;;;;10.82;5.70;;;;;;;15.00;94.77;100712.50;6271443;22;20065;-84
2022/10/31 14:59:50;;;;;;;14.07;5.25;;;;;;;15.06;94.71;100722.63;6234001;22;20389;-83
2022/10/31 15:03:13;;;;;;;10.57;5.20;;;;;;;15.15;94.95;100720.28;6252402;22;20038;-83
2022/10/31 15:06:22;;;;;;;11.60;5.32;;;;;;;15.11;94.27;100707.31;6272177;22;20108;-84
2022/10/31 15:09:33;;;;;;;16.75;5.55;;;;;;;15.07;95.25;100703.22;6272060;22;20150;-84
2022/10/31 15:12:38;;;;;;;12.70;5.60;;;;;;;15.02;96.65;100700.06;6272262;22;20458;-84